createdAt,value
2022-12-25T00:02:01.941Z,98291.78
2022-12-25T00:04:28.840Z,98289.25
2022-12-25T00:06:56.022Z,98292.75
2022-12-25T00:09:22.718Z,98293.13
2022-12-25T00:11:49.340Z,98303.38
2022-12-25T00:14:16.155Z,98304.97
2022-12-25T00:16:42.815Z,98311.59
2022-12-25T00:19:09.517Z,98318.22
2022-12-25T00:21:36.811Z,98328.47
2022-12-25T00:24:03.690Z,98327.63
2022-12-25T00:26:30.352Z,98322.19
2022-12-25T00:28:57.606Z,98329.56
2022-12-25T00:31:25.721Z,98325.69
2022-12-25T00:33:52.967Z,98325.50
2022-12-25T00:36:22.334Z,98328.72
2022-12-25T00:38:49.281Z,98331.03
2022-12-25T00:41:38.758Z,98331.50
2022-12-25T00:44:06.461Z,98329.22
2022-12-25T00:46:33.222Z,98338.56
2022-12-25T00:49:00.580Z,98341.19
2022-12-25T00:51:27.247Z,98341.13
2022-12-25T00:53:53.916Z,98342.09
2022-12-25T00:56:20.561Z,98329.88
2022-12-25T00:58:47.737Z,98328.78
2022-12-25T01:01:14.623Z,98334.91
2022-12-25T01:03:42.123Z,98335.09
2022-12-25T01:06:10.923Z,98341.31
2022-12-25T01:08:59.725Z,98332.81
2022-12-25T01:11:26.654Z,98335.91
2022-12-25T01:13:53.316Z,98342.72
2022-12-25T01:16:19.894Z,98349.75
2022-12-25T01:18:46.721Z,98341.44
2022-12-25T01:21:18.383Z,98343.34
2022-12-25T01:23:45.095Z,98346.72
2022-12-25T01:26:12.458Z,98347.16
2022-12-25T01:28:39.778Z,98339.63
2022-12-25T01:31:10.647Z,98349.81
2022-12-25T01:33:38.474Z,98348.84
2022-12-25T01:36:15.901Z,98341.22
2022-12-25T01:38:43.742Z,98337.56
2022-12-25T01:41:11.859Z,98337.66
2022-12-25T01:43:56.240Z,98343.13
2022-12-25T01:46:22.889Z,98333.38
2022-12-25T01:48:49.960Z,98337.72
2022-12-25T01:51:29.125Z,98339.66
2022-12-25T01:53:59.556Z,98327.84
2022-12-25T01:56:29.029Z,98327.44
2022-12-25T01:58:57.665Z,98329.03
2022-12-25T02:01:24.392Z,98325.00
2022-12-25T02:03:57.055Z,98327.81
2022-12-25T02:06:23.649Z,98328.09
2022-12-25T02:08:51.645Z,98330.97
2022-12-25T02:11:37.317Z,98332.19
2022-12-25T02:14:03.979Z,98322.69
2022-12-25T02:16:35.556Z,98333.38
2022-12-25T02:19:25.195Z,98332.81
2022-12-25T02:22:06.908Z,98332.19
2022-12-25T02:24:50.635Z,98346.13
2022-12-25T02:27:27.705Z,98343.66
2022-12-25T02:30:03.794Z,98353.41
2022-12-25T02:32:52.364Z,98350.56
2022-12-25T02:35:28.390Z,98338.69
2022-12-25T02:38:16.692Z,98338.19
2022-12-25T02:40:51.347Z,98339.63
2022-12-25T02:43:46.565Z,98337.72
2022-12-25T02:46:35.248Z,98341.59
2022-12-25T02:49:41.583Z,98349.56
2022-12-25T02:52:41.202Z,98342.84
2022-12-25T02:55:35.983Z,98359.16
2022-12-25T02:58:27.276Z,98362.81
2022-12-25T03:01:18.398Z,98342.72
2022-12-25T03:04:05.487Z,98342.13
2022-12-25T03:06:46.739Z,98346.72
2022-12-25T03:09:42.758Z,98343.50
2022-12-25T03:12:15.716Z,98345.13
2022-12-25T03:15:01.315Z,98344.75
2022-12-25T03:17:28.102Z,98336.53
2022-12-25T03:20:13.249Z,98338.47
2022-12-25T03:23:02.735Z,98337.69
2022-12-25T03:25:48.103Z,98336.75
2022-12-25T03:28:15.024Z,98331.00
2022-12-25T03:31:06.826Z,98338.16
2022-12-25T03:34:10.701Z,98342.78
2022-12-25T03:36:40.977Z,98346.94
2022-12-25T03:39:42.120Z,98339.25
2022-12-25T03:42:37.477Z,98341.75
2022-12-25T03:45:41.278Z,98349.47
2022-12-25T03:48:28.764Z,98350.53
2022-12-25T03:51:22.436Z,98354.72
2022-12-25T03:54:13.594Z,98350.44
2022-12-25T03:57:00.362Z,98361.13
2022-12-25T03:59:45.737Z,98367.44
2022-12-25T04:02:31.250Z,98366.66
2022-12-25T04:05:16.416Z,98363.56
2022-12-25T04:08:02.272Z,98357.03
2022-12-25T04:10:47.683Z,98363.22
2022-12-25T04:13:34.564Z,98356.63
2022-12-25T04:16:20.145Z,98355.25
2022-12-25T04:19:05.524Z,98353.72
2022-12-25T04:21:50.895Z,98361.19
2022-12-25T04:24:36.476Z,98354.06
2022-12-25T04:27:21.561Z,98357.13
2022-12-25T04:30:06.905Z,98353.69
2022-12-25T04:32:52.175Z,98353.63
2022-12-25T04:35:37.611Z,98349.84
2022-12-25T04:38:04.236Z,98359.66
2022-12-25T04:40:30.822Z,98359.28
2022-12-25T04:42:57.430Z,98360.13
2022-12-25T04:45:24.051Z,98355.75
2022-12-25T04:47:50.773Z,98349.84
2022-12-25T04:50:17.303Z,98356.25
2022-12-25T04:52:43.953Z,98364.13
2022-12-25T04:55:11.397Z,98369.34
2022-12-25T04:57:38.382Z,98372.25
2022-12-25T05:00:07.402Z,98381.34
2022-12-25T05:02:34.675Z,98376.44
2022-12-25T05:05:01.510Z,98379.72
2022-12-25T05:07:28.242Z,98389.50
2022-12-25T05:09:54.928Z,98391.38
2022-12-25T05:12:21.474Z,98395.63
2022-12-25T05:14:48.163Z,98396.06
2022-12-25T05:17:14.661Z,98396.69
2022-12-25T05:19:41.340Z,98394.28
2022-12-25T05:22:07.827Z,98394.28
2022-12-25T05:24:34.586Z,98381.00
2022-12-25T05:27:01.214Z,98392.34
2022-12-25T05:29:28.022Z,98392.09
2022-12-25T05:31:54.717Z,98399.66
2022-12-25T05:34:21.469Z,98401.84
2022-12-25T05:36:48.076Z,98403.56
2022-12-25T05:39:14.827Z,98409.75
2022-12-25T05:41:41.356Z,98403.50
2022-12-25T05:44:07.976Z,98398.50
2022-12-25T05:46:34.830Z,98397.78
2022-12-25T05:49:01.460Z,98398.50
2022-12-25T05:51:28.073Z,98407.50
2022-12-25T05:53:54.698Z,98404.91
2022-12-25T05:56:21.246Z,98414.09
2022-12-25T05:58:48.330Z,98407.09
2022-12-25T06:01:19.291Z,98399.16
2022-12-25T06:03:46.624Z,98409.84
2022-12-25T06:06:13.962Z,98415.03
2022-12-25T06:08:41.342Z,98406.19
2022-12-25T06:11:14.575Z,98413.00
2022-12-25T06:13:41.757Z,98414.22
2022-12-25T06:16:11.512Z,98412.00
2022-12-25T06:18:41.693Z,98411.59
2022-12-25T06:21:10.143Z,98406.38
2022-12-25T06:23:38.391Z,98401.19
2022-12-25T06:26:10.415Z,98401.47
2022-12-25T06:28:37.377Z,98397.41
2022-12-25T06:31:09.441Z,98395.56
2022-12-25T06:33:36.895Z,98386.22
2022-12-25T06:36:11.935Z,98390.22
2022-12-25T06:38:38.923Z,98390.31
2022-12-25T06:41:11.566Z,98391.09
2022-12-25T06:43:38.726Z,98382.28
2022-12-25T06:46:10.694Z,98393.88
2022-12-25T06:48:39.148Z,98394.59
2022-12-25T06:51:06.803Z,98391.31
2022-12-25T06:53:40.384Z,98377.66
2022-12-25T06:56:10.600Z,98392.50
2022-12-25T06:58:37.257Z,98390.22
2022-12-25T07:01:15.329Z,98383.81
2022-12-25T07:03:44.252Z,98389.06
2022-12-25T07:06:11.455Z,98393.69
2022-12-25T07:08:38.289Z,98390.44
2022-12-25T07:11:05.502Z,98386.41
2022-12-25T07:13:32.519Z,98384.53
2022-12-25T07:16:01.369Z,98382.44
2022-12-25T07:18:29.767Z,98382.91
2022-12-25T07:20:56.462Z,98382.63
2022-12-25T07:23:23.611Z,98385.28
2022-12-25T07:25:54.742Z,98402.25
2022-12-25T07:28:21.625Z,98403.47
2022-12-25T07:30:48.384Z,98402.44
2022-12-25T07:33:15.629Z,98396.81
2022-12-25T07:35:42.494Z,98402.41
2022-12-25T07:38:09.849Z,98404.00
2022-12-25T07:40:36.580Z,98408.03
2022-12-25T07:43:03.345Z,98417.75
2022-12-25T07:45:30.183Z,98434.59
2022-12-25T07:48:05.855Z,98432.66
2022-12-25T07:50:34.660Z,98427.66
2022-12-25T07:53:01.491Z,98424.75
2022-12-25T07:55:28.307Z,98419.56
2022-12-25T07:57:55.284Z,98405.66
2022-12-25T08:00:22.265Z,98410.00
2022-12-25T08:02:50.203Z,98418.97
2022-12-25T08:05:17.206Z,98413.91
2022-12-25T08:07:43.861Z,98419.94
2022-12-25T08:10:10.954Z,98415.53
2022-12-25T08:12:37.739Z,98408.50
2022-12-25T08:15:04.817Z,98412.69
2022-12-25T08:17:31.439Z,98421.81
2022-12-25T08:19:57.973Z,98425.47
2022-12-25T08:22:25.117Z,98424.97
2022-12-25T08:24:51.751Z,98428.09
2022-12-25T08:27:18.297Z,98435.50
2022-12-25T08:29:45.105Z,98425.72
2022-12-25T08:32:11.789Z,98424.97
2022-12-25T08:34:38.962Z,98430.84
2022-12-25T08:37:05.974Z,98430.56
2022-12-25T08:39:32.654Z,98446.56
2022-12-25T08:41:59.303Z,98440.16
2022-12-25T08:44:25.874Z,98438.94
2022-12-25T08:46:53.286Z,98445.25
2022-12-25T08:49:19.969Z,98449.66
2022-12-25T08:51:46.939Z,98457.56
2022-12-25T08:54:13.673Z,98458.53
2022-12-25T08:56:40.250Z,98459.00
2022-12-25T08:59:06.940Z,98457.09
2022-12-25T09:01:33.828Z,98462.56
2022-12-25T09:04:00.566Z,98455.66
2022-12-25T09:06:27.126Z,98446.09
2022-12-25T09:08:53.844Z,98452.78
2022-12-25T09:11:21.176Z,98456.16
2022-12-25T09:13:48.633Z,98453.44
2022-12-25T09:16:18.432Z,98457.97
2022-12-25T09:18:45.117Z,98462.38
2022-12-25T09:21:14.985Z,98460.22
2022-12-25T09:23:42.651Z,98445.50
2022-12-25T09:26:13.512Z,98442.97
2022-12-25T09:28:43.719Z,98442.53
2022-12-25T09:31:13.504Z,98431.19
2022-12-25T09:33:40.480Z,98434.31
2022-12-25T09:36:08.619Z,98426.75
2022-12-25T09:38:36.059Z,98425.34
2022-12-25T09:41:50.521Z,98419.63
2022-12-25T09:44:23.127Z,98417.50
2022-12-25T09:46:56.050Z,98405.56
2022-12-25T09:49:35.675Z,98406.34
2022-12-25T09:52:19.845Z,98411.56
2022-12-25T09:55:20.584Z,98419.97
2022-12-25T09:57:54.514Z,98416.09
2022-12-25T10:00:23.618Z,98419.81
2022-12-25T10:03:12.421Z,98405.50
2022-12-25T10:05:57.579Z,98416.06
2022-12-25T10:08:52.469Z,98407.94
2022-12-25T10:11:40.430Z,98400.34
2022-12-25T10:14:07.675Z,98398.22
2022-12-25T10:17:12.083Z,98401.88
2022-12-25T10:19:58.115Z,98389.63
2022-12-25T10:22:47.702Z,98376.97
2022-12-25T10:25:21.135Z,98368.44
2022-12-25T10:28:03.899Z,98382.50
2022-12-25T10:30:31.708Z,98378.56
2022-12-25T10:32:58.744Z,98381.81
2022-12-25T10:35:29.572Z,98379.97
2022-12-25T10:38:11.798Z,98373.47
2022-12-25T10:40:53.302Z,98371.59
2022-12-25T10:43:28.130Z,98375.91
2022-12-25T10:45:54.957Z,98367.84
2022-12-25T10:48:33.096Z,98368.28
2022-12-25T10:51:00.126Z,98371.78
2022-12-25T10:53:29.368Z,98373.34
2022-12-25T10:55:58.993Z,98367.97
2022-12-25T10:58:26.274Z,98361.81
2022-12-25T11:00:57.336Z,98354.91
2022-12-25T11:03:29.011Z,98340.69
2022-12-25T11:05:56.034Z,98339.56
2022-12-25T11:08:25.559Z,98346.88
2022-12-25T11:11:07.801Z,98342.03
2022-12-25T11:13:47.424Z,98345.97
2022-12-25T11:16:25.820Z,98350.22
2022-12-25T11:18:54.461Z,98355.50
2022-12-25T11:21:33.671Z,98337.91
2022-12-25T11:24:00.360Z,98331.22
2022-12-25T11:26:29.676Z,98321.72
2022-12-25T11:28:56.940Z,98311.59
2022-12-25T11:31:39.323Z,98297.00
2022-12-25T11:34:14.748Z,98297.41
2022-12-25T11:36:50.024Z,98288.44
2022-12-25T11:39:23.933Z,98288.16
2022-12-25T11:42:13.495Z,98290.94
2022-12-25T11:44:51.448Z,98292.94
2022-12-25T11:47:35.047Z,98295.31
2022-12-25T11:50:07.418Z,98301.72
2022-12-25T11:52:38.855Z,98293.28
2022-12-25T11:55:16.910Z,98289.19
2022-12-25T11:57:47.955Z,98284.31
2022-12-25T12:00:16.310Z,98282.84
2022-12-25T12:02:53.819Z,98272.44
2022-12-25T12:05:29.582Z,98269.84
2022-12-25T12:08:02.467Z,98278.25
2022-12-25T12:10:34.785Z,98280.63
2022-12-25T12:13:13.720Z,98275.31
2022-12-25T12:15:50.458Z,98266.34
2022-12-25T12:18:29.771Z,98270.22
2022-12-25T12:21:05.197Z,98273.81
2022-12-25T12:23:36.040Z,98272.88
2022-12-25T12:26:04.480Z,98257.59
2022-12-25T12:28:44.722Z,98259.00
2022-12-25T12:31:12.161Z,98266.91
2022-12-25T12:33:44.118Z,98272.63
2022-12-25T12:36:14.630Z,98266.56
2022-12-25T12:38:43.664Z,98260.63
2022-12-25T12:41:12.556Z,98258.25
2022-12-25T12:43:42.524Z,98240.75
2022-12-25T12:46:31.061Z,98241.75
2022-12-25T12:49:20.129Z,98240.78
2022-12-25T12:51:46.922Z,98222.56
2022-12-25T12:54:24.933Z,98223.16
2022-12-25T12:57:04.403Z,98220.41
2022-12-25T12:59:44.521Z,98226.94
2022-12-25T13:02:36.331Z,98211.63
2022-12-25T13:05:14.330Z,98224.56
2022-12-25T13:07:59.331Z,98215.41
2022-12-25T13:10:34.998Z,98209.44
2022-12-25T13:13:06.908Z,98210.19
2022-12-25T13:15:35.282Z,98198.28
2022-12-25T13:18:06.718Z,98189.56
2022-12-25T13:20:46.910Z,98197.59
2022-12-25T13:23:23.673Z,98173.91
2022-12-25T13:25:55.490Z,98167.94
2022-12-25T13:28:30.211Z,98163.53
2022-12-25T13:31:05.672Z,98141.06
2022-12-25T13:33:33.495Z,98151.63
2022-12-25T13:36:00.317Z,98149.00
2022-12-25T13:38:28.976Z,98152.13
2022-12-25T13:41:15.657Z,98137.13
2022-12-25T13:43:44.516Z,98138.25
2022-12-25T13:46:14.391Z,98143.41
2022-12-25T13:48:42.060Z,98150.56
2022-12-25T13:51:16.899Z,98139.75
2022-12-25T13:53:44.151Z,98144.69
2022-12-25T13:56:16.211Z,98146.16
2022-12-25T13:58:44.747Z,98150.38
2022-12-25T14:01:16.255Z,98152.09
2022-12-25T14:03:46.233Z,98170.06
2022-12-25T14:06:20.979Z,98171.31
2022-12-25T14:08:48.587Z,98181.44
2022-12-25T14:11:18.053Z,98183.97
2022-12-25T14:13:47.852Z,98181.44
2022-12-25T14:16:18.709Z,98191.00
2022-12-25T14:19:00.673Z,98194.97
2022-12-25T14:21:32.791Z,98192.25
2022-12-25T14:24:00.113Z,98192.34
2022-12-25T14:26:32.071Z,98215.69
2022-12-25T14:29:04.949Z,98213.63
2022-12-25T14:31:32.859Z,98209.13
2022-12-25T14:34:03.044Z,98212.41
2022-12-25T14:36:31.606Z,98197.75
2022-12-25T14:39:00.655Z,98191.25
2022-12-25T14:41:39.492Z,98197.53
2022-12-25T14:44:26.183Z,98201.19
2022-12-25T14:47:23.782Z,98196.28
2022-12-25T14:49:51.056Z,98190.97
2022-12-25T14:52:31.662Z,98167.69
2022-12-25T14:55:04.894Z,98159.06
2022-12-25T14:57:38.516Z,98159.94
2022-12-25T15:00:18.635Z,98173.22
2022-12-25T15:02:47.327Z,98169.63
2022-12-25T15:05:28.423Z,98174.84
2022-12-25T15:08:13.222Z,98179.16
2022-12-25T15:13:28.592Z,98155.75
2022-12-25T15:16:12.243Z,98153.66
2022-12-25T15:18:42.029Z,98154.91
2022-12-25T15:21:30.356Z,98153.66
2022-12-25T15:23:59.113Z,98155.59
2022-12-25T15:26:27.297Z,98158.06
2022-12-25T15:28:53.996Z,98156.91
2022-12-25T15:31:31.901Z,98155.75
2022-12-25T15:34:01.781Z,98138.09
2022-12-25T15:36:29.037Z,98138.03
2022-12-25T15:38:56.449Z,98133.69
2022-12-25T15:42:03.851Z,98134.28
2022-12-25T15:44:30.603Z,98125.50
2022-12-25T15:46:58.408Z,98122.69
2022-12-25T15:49:25.113Z,98133.75
2022-12-25T15:51:51.754Z,98137.84
2022-12-25T15:54:18.699Z,98121.47
2022-12-25T15:56:58.401Z,98123.28
2022-12-25T15:59:25.053Z,98133.22
2022-12-25T16:01:54.597Z,98137.72
2022-12-25T16:04:22.203Z,98129.34
2022-12-25T16:06:49.272Z,98132.72
2022-12-25T16:09:16.862Z,98132.03
2022-12-25T16:11:43.770Z,98138.38
2022-12-25T16:14:10.630Z,98136.44
2022-12-25T16:16:37.833Z,98136.25
2022-12-25T16:19:05.440Z,98134.03
2022-12-25T16:21:39.294Z,98134.31
2022-12-25T16:24:06.331Z,98137.38
2022-12-25T16:26:33.526Z,98126.56
2022-12-25T16:29:06.807Z,98127.56
2022-12-25T16:31:34.209Z,98110.59
2022-12-25T16:34:01.545Z,98105.97
2022-12-25T16:36:28.643Z,98099.50
2022-12-25T16:38:55.388Z,98092.63
2022-12-25T16:41:22.723Z,98090.34
2022-12-25T16:43:49.666Z,98091.75
2022-12-25T16:46:19.238Z,98090.06
2022-12-25T16:48:46.142Z,98080.13
2022-12-25T16:51:19.725Z,98095.81
2022-12-25T16:53:47.258Z,98081.25
2022-12-25T16:56:17.150Z,98075.44
2022-12-25T16:58:48.501Z,98069.09
2022-12-25T17:01:17.438Z,98073.94
2022-12-25T17:03:44.759Z,98073.59
2022-12-25T17:06:20.573Z,98082.22
2022-12-25T17:08:47.622Z,98081.25
2022-12-25T17:11:15.455Z,98092.34
2022-12-25T17:13:47.460Z,98095.72
2022-12-25T17:16:15.260Z,98098.03
2022-12-25T17:18:41.992Z,98098.09
2022-12-25T17:21:09.416Z,98091.00
2022-12-25T17:23:39.223Z,98090.06
2022-12-25T17:26:06.294Z,98083.47
2022-12-25T17:28:34.659Z,98068.28
2022-12-25T17:31:06.813Z,98064.25
2022-12-25T17:33:36.403Z,98056.88
2022-12-25T17:36:04.709Z,98049.09
2022-12-25T17:38:32.671Z,98030.03
2022-12-25T17:41:01.220Z,98021.38
2022-12-25T17:43:28.825Z,98015.94
2022-12-25T17:45:55.525Z,98018.97
2022-12-25T17:48:22.149Z,98012.03
2022-12-25T17:50:48.797Z,98015.16
2022-12-25T17:53:15.521Z,98016.06
2022-12-25T17:55:42.399Z,98019.13
2022-12-25T17:58:09.256Z,98028.22
2022-12-25T18:00:36.664Z,98035.50
2022-12-25T18:03:10.804Z,98021.13
2022-12-25T18:05:38.516Z,98021.03
2022-12-25T18:08:05.417Z,98011.72
2022-12-25T18:10:42.031Z,98010.31
2022-12-25T18:13:10.778Z,98000.75
2022-12-25T18:15:39.800Z,97994.81
2022-12-25T18:18:08.370Z,98003.94
2022-12-25T18:20:39.807Z,98006.97
2022-12-25T18:23:08.048Z,98003.63
2022-12-25T18:25:34.823Z,98002.44
2022-12-25T18:28:02.793Z,98004.59
2022-12-25T18:30:29.723Z,97994.91
2022-12-25T18:32:56.341Z,98005.19
2022-12-25T18:35:23.427Z,98004.28
2022-12-25T18:37:50.156Z,98000.63
2022-12-25T18:40:17.133Z,98015.88
2022-12-25T18:42:46.465Z,98023.88
2022-12-25T18:45:14.763Z,98013.22
2022-12-25T18:47:41.572Z,98016.72
2022-12-25T18:50:09.772Z,98004.31
2022-12-25T18:52:49.977Z,97981.16
2022-12-25T18:55:17.565Z,97983.69
2022-12-25T18:57:44.608Z,97988.28
2022-12-25T19:00:11.702Z,97970.84
2022-12-25T19:02:38.694Z,97976.00
2022-12-25T19:05:06.026Z,97979.84
2022-12-25T19:07:32.776Z,97981.75
2022-12-25T19:09:59.664Z,97975.34
2022-12-25T19:12:26.369Z,97975.66
2022-12-25T19:14:53.025Z,97984.38
2022-12-25T19:17:19.660Z,97975.28
2022-12-25T19:19:46.545Z,97966.06
2022-12-25T19:22:13.589Z,97966.94
2022-12-25T19:24:40.343Z,97971.72
2022-12-25T19:27:07.299Z,97966.28
2022-12-25T19:29:34.480Z,97964.28
2022-12-25T19:32:01.564Z,97952.47
2022-12-25T19:34:28.341Z,97938.84
2022-12-25T19:36:54.887Z,97942.00
2022-12-25T19:39:24.790Z,97944.81
2022-12-25T19:41:51.441Z,97937.38
2022-12-25T19:44:19.992Z,97944.81
2022-12-25T19:46:46.710Z,97946.81
2022-12-25T19:49:14.053Z,97944.44
2022-12-25T19:51:44.220Z,97951.50
2022-12-25T19:54:15.938Z,97943.53
2022-12-25T19:56:43.350Z,97942.19
2022-12-25T19:59:11.885Z,97945.38
2022-12-25T20:01:39.488Z,97954.78
2022-12-25T20:04:08.785Z,97951.13
2022-12-25T20:06:38.397Z,97966.75
2022-12-25T20:09:14.977Z,97947.66
2022-12-25T20:11:43.139Z,97948.78
2022-12-25T20:14:13.554Z,97947.84
2022-12-25T20:16:40.960Z,97954.06
2022-12-25T20:19:08.188Z,97940.19
2022-12-25T20:21:35.122Z,97944.72
2022-12-25T20:24:01.989Z,97940.19
2022-12-25T20:26:30.884Z,97936.78
2022-12-25T20:28:58.592Z,97933.47
2022-12-25T20:31:30.755Z,97928.66
2022-12-25T20:33:59.671Z,97934.19
2022-12-25T20:36:31.200Z,97938.00
2022-12-25T20:39:03.655Z,97956.38
2022-12-25T20:41:30.591Z,97964.75
2022-12-25T20:43:58.064Z,97970.50
2022-12-25T20:46:26.032Z,97967.00
2022-12-25T20:48:53.733Z,97964.78
2022-12-25T20:51:23.391Z,97960.84
2022-12-25T20:53:51.254Z,97975.22
2022-12-25T20:56:21.113Z,97955.38
2022-12-25T20:58:52.133Z,97955.91
2022-12-25T21:01:18.931Z,97944.41
2022-12-25T21:03:45.942Z,97947.75
2022-12-25T21:06:12.955Z,97935.78
2022-12-25T21:08:41.491Z,97939.13
2022-12-25T21:11:08.648Z,97928.97
2022-12-25T21:13:41.773Z,97920.66
2022-12-25T21:16:12.154Z,97904.13
2022-12-25T21:18:39.301Z,97900.59
2022-12-25T21:21:07.762Z,97911.19
2022-12-25T21:23:36.613Z,97929.06
2022-12-25T21:26:31.788Z,97933.78
2022-12-25T21:29:00.848Z,97933.44
2022-12-25T21:31:28.626Z,97931.16
2022-12-25T21:33:57.700Z,97923.03
2022-12-25T21:36:29.971Z,97918.56
2022-12-25T21:39:02.529Z,97910.50
2022-12-25T21:41:30.838Z,97894.75
2022-12-25T21:43:57.816Z,97918.09
2022-12-25T21:46:26.131Z,97918.97
2022-12-25T21:48:53.538Z,97914.81
2022-12-25T21:51:44.502Z,97912.50
2022-12-25T21:54:12.491Z,97911.31
2022-12-25T21:56:44.471Z,97922.06
2022-12-25T21:59:15.490Z,97922.06
2022-12-25T22:01:42.784Z,97916.28
2022-12-25T22:04:11.164Z,97911.38
2022-12-25T22:06:56.409Z,97911.56
2022-12-25T22:09:23.229Z,97912.28
2022-12-25T22:12:08.583Z,97916.72
2022-12-25T22:14:54.360Z,97922.13
2022-12-25T22:17:42.410Z,97924.00
2022-12-25T22:20:15.762Z,97921.03
2022-12-25T22:22:42.749Z,97913.97
2022-12-25T22:25:10.863Z,97916.09
2022-12-25T22:27:39.230Z,97917.25
2022-12-25T22:30:07.974Z,97924.16
2022-12-25T22:32:34.864Z,97932.72
2022-12-25T22:35:01.829Z,97935.41
2022-12-25T22:37:28.543Z,97924.81
2022-12-25T22:39:55.247Z,97938.47
2022-12-25T22:42:22.380Z,97931.53
2022-12-25T22:44:49.220Z,97927.47
2022-12-25T22:47:15.960Z,97935.69
2022-12-25T22:49:43.044Z,97951.72
2022-12-25T22:52:10.102Z,97947.66
2022-12-25T22:54:37.243Z,97955.59
2022-12-25T22:57:04.626Z,97957.88
2022-12-25T22:59:32.927Z,97959.50
2022-12-25T23:02:00.687Z,97962.28
2022-12-25T23:04:28.532Z,97955.00
2022-12-25T23:06:55.486Z,97946.44
2022-12-25T23:09:29.468Z,97956.59
2022-12-25T23:11:58.122Z,97950.25
2022-12-25T23:14:41.753Z,97953.91
2022-12-25T23:17:31.654Z,97957.56
2022-12-25T23:20:18.725Z,97953.44
2022-12-25T23:23:05.166Z,97948.78
2022-12-25T23:25:52.464Z,97951.06
2022-12-25T23:28:39.251Z,97948.41
2022-12-25T23:31:06.161Z,97947.72
2022-12-25T23:33:32.793Z,97948.53
2022-12-25T23:35:59.329Z,97948.53
2022-12-25T23:38:26.319Z,97951.53
2022-12-25T23:40:53.018Z,97942.94
2022-12-25T23:43:19.661Z,97953.19
2022-12-25T23:45:46.289Z,97948.19
2022-12-25T23:48:13.065Z,97955.53
2022-12-25T23:50:39.780Z,97949.59
2022-12-25T23:53:06.522Z,97954.19
2022-12-25T23:55:33.733Z,97956.47
2022-12-25T23:58:01.119Z,97954.94
